createdAt,value
2018-09-08T00:00:18.095Z,54.07
2018-09-08T00:01:18.023Z,53.88
2018-09-08T00:02:17.951Z,53.40
2018-09-08T00:03:17.879Z,53.69
2018-09-08T00:04:17.804Z,53.88
2018-09-08T00:05:17.733Z,53.69
2018-09-08T00:06:17.662Z,53.20
2018-09-08T00:07:17.587Z,54.07
2018-09-08T00:08:17.512Z,54.36
2018-09-08T00:09:17.440Z,53.40
2018-09-08T00:10:17.367Z,53.30
2018-09-08T00:11:17.294Z,54.07
2018-09-08T00:12:17.222Z,53.97
2018-09-08T00:13:17.147Z,52.83
2018-09-08T00:14:17.075Z,54.26
2018-09-08T00:15:17.003Z,54.83
2018-09-08T00:16:16.928Z,54.36
2018-09-08T00:17:16.858Z,53.97
2018-09-08T00:18:16.782Z,53.97
2018-09-08T00:19:16.711Z,53.30
2018-09-08T00:20:16.639Z,52.06
2018-09-08T00:21:16.565Z,52.25
2018-09-08T00:22:16.490Z,52.06
2018-09-08T00:23:16.421Z,51.77
2018-09-08T00:24:16.344Z,52.34
2018-09-08T00:25:16.272Z,53.20
2018-09-08T00:26:16.200Z,54.55
2018-09-08T00:27:16.127Z,54.26
2018-09-08T00:28:16.052Z,53.40
2018-09-08T00:29:15.980Z,52.34
2018-09-08T00:30:15.907Z,51.87
2018-09-08T00:31:15.834Z,51.39
2018-09-08T00:32:15.760Z,51.97
2018-09-08T00:33:15.689Z,53.49
2018-09-08T00:34:15.615Z,53.11
2018-09-08T00:35:15.543Z,52.92
2018-09-08T00:36:15.470Z,52.44
2018-09-08T00:37:15.396Z,52.34
2018-09-08T00:38:15.324Z,52.25
2018-09-08T00:39:15.251Z,51.10
2018-09-08T00:40:15.177Z,51.97
2018-09-08T00:41:15.107Z,52.83
2018-09-08T00:42:15.034Z,54.26
2018-09-08T00:43:14.960Z,55.12
2018-09-08T00:44:14.885Z,54.80
2018-09-08T00:45:14.813Z,54.04
2018-09-08T00:46:14.741Z,52.89
2018-09-08T00:47:14.667Z,51.07
2018-09-08T00:48:14.594Z,50.02
2018-09-08T00:49:14.521Z,47.16
2018-09-08T00:50:14.448Z,47.06
2018-09-08T00:51:14.376Z,47.25
2018-09-08T00:52:14.301Z,46.39
2018-09-08T00:53:14.231Z,49.45
2018-09-08T00:54:14.157Z,51.27
2018-09-08T00:55:14.083Z,50.86
2018-09-08T00:56:14.013Z,49.71
2018-09-08T00:57:13.934Z,48.47
2018-09-08T00:58:13.863Z,48.38
2018-09-08T00:59:13.790Z,48.47
2018-09-08T01:00:13.716Z,48.57
2018-09-08T01:01:13.646Z,46.84
2018-09-08T01:02:13.570Z,46.17
2018-09-08T01:03:13.499Z,47.23
2018-09-08T01:04:13.422Z,48.47
2018-09-08T01:05:13.350Z,48.47
2018-09-08T01:06:13.276Z,46.46
2018-09-08T01:07:13.203Z,46.17
2018-09-08T01:08:13.129Z,46.37
2018-09-08T01:09:13.055Z,47.32
2018-09-08T01:10:12.982Z,47.11
2018-09-08T01:11:12.909Z,45.96
2018-09-08T01:12:12.837Z,46.15
2018-09-08T01:13:12.761Z,44.72
2018-09-08T01:14:12.688Z,43.86
2018-09-08T01:15:12.615Z,43.57
2018-09-08T01:16:12.541Z,43.29
2018-09-08T01:17:12.466Z,43.38
2018-09-08T01:18:12.393Z,44.05
2018-09-08T01:19:12.320Z,44.91
2018-09-08T01:20:12.246Z,45.58
2018-09-08T01:21:12.172Z,44.62
2018-09-08T01:22:12.099Z,45.48
2018-09-08T01:23:12.025Z,46.25
2018-09-08T01:24:11.952Z,44.72
2018-09-08T01:25:11.877Z,44.43
2018-09-08T01:26:11.804Z,44.05
2018-09-08T01:27:11.731Z,44.05
2018-09-08T01:28:11.656Z,46.15
2018-09-08T01:29:11.583Z,48.25
2018-09-08T01:30:11.510Z,48.54
2018-09-08T01:31:11.440Z,47.39
2018-09-08T01:32:11.362Z,47.11
2018-09-08T01:33:11.288Z,46.72
2018-09-08T01:34:11.213Z,47.11
2018-09-08T01:35:11.141Z,46.06
2018-09-08T01:36:11.068Z,44.43
2018-09-08T01:37:10.993Z,45.87
2018-09-08T01:38:10.918Z,48.07
2018-09-08T01:39:10.849Z,48.35
2018-09-08T01:40:10.771Z,48.54
2018-09-08T01:41:10.698Z,48.54
2018-09-08T01:42:10.624Z,48.35
2018-09-08T01:43:10.551Z,48.54
2018-09-08T01:44:10.476Z,48.16
2018-09-08T01:45:10.402Z,48.25
2018-09-08T01:46:10.328Z,48.52
2018-09-08T01:47:10.254Z,48.71
2018-09-08T01:48:10.181Z,48.13
2018-09-08T01:49:10.106Z,48.71
2018-09-08T01:50:10.033Z,49.57
2018-09-08T01:51:09.959Z,49.76
2018-09-08T01:52:09.884Z,51.19
2018-09-08T01:53:09.810Z,52.15
2018-09-08T01:54:09.737Z,50.71
2018-09-08T01:55:09.665Z,50.71
2018-09-08T01:56:09.595Z,51.00
2018-09-08T01:57:09.514Z,50.62
2018-09-08T01:58:09.441Z,51.86
2018-09-08T01:59:09.368Z,51.00
2018-09-08T02:00:09.296Z,50.62
2018-09-08T02:01:09.216Z,51.17
2018-09-08T02:02:09.144Z,51.74
2018-09-08T02:03:09.072Z,51.26
2018-09-08T02:04:08.995Z,50.12
2018-09-08T02:05:08.921Z,49.64
2018-09-08T02:06:08.847Z,52.31
2018-09-08T02:07:08.775Z,51.93
2018-09-08T02:08:08.698Z,52.50
2018-09-08T02:09:08.624Z,53.74
2018-09-08T02:10:08.551Z,52.98
2018-09-08T02:11:08.477Z,52.31
2018-09-08T02:12:08.402Z,51.64
2018-09-08T02:13:08.327Z,52.12
2018-09-08T02:14:08.254Z,51.83
2018-09-08T02:15:08.179Z,50.88
2018-09-08T02:16:08.103Z,50.49
2018-09-08T02:17:08.029Z,49.64
2018-09-08T02:18:07.957Z,50.40
2018-09-08T02:19:07.881Z,51.23
2018-09-08T02:20:07.805Z,52.38
2018-09-08T02:21:07.731Z,52.19
2018-09-08T02:22:07.656Z,51.62
2018-09-08T02:23:07.582Z,52.19
2018-09-08T02:24:07.509Z,52.48
2018-09-08T02:25:07.432Z,52.48
2018-09-08T02:26:07.363Z,50.76
2018-09-08T02:27:07.285Z,49.99
2018-09-08T02:28:07.216Z,49.04
2018-09-08T02:29:07.168Z,48.28
2018-09-08T02:30:07.060Z,48.18
2018-09-08T02:31:06.986Z,48.85
2018-09-08T02:32:06.912Z,49.13
2018-09-08T02:33:06.835Z,50.28
2018-09-08T02:34:06.760Z,51.04
2018-09-08T02:35:06.686Z,50.95
2018-09-08T02:36:06.611Z,52.19
2018-09-08T02:37:06.536Z,52.86
2018-09-08T02:38:06.464Z,53.02
2018-09-08T02:39:06.386Z,53.41
2018-09-08T02:40:06.310Z,53.02
2018-09-08T02:41:06.236Z,53.88
2018-09-08T02:42:06.166Z,54.93
2018-09-08T02:43:06.087Z,53.41
2018-09-08T02:44:06.011Z,53.50
2018-09-08T02:45:05.936Z,52.92
2018-09-08T02:46:05.862Z,52.16
2018-09-08T02:47:05.787Z,51.88
2018-09-08T02:48:05.725Z,52.45
2018-09-08T02:49:05.640Z,52.83
2018-09-08T02:50:05.561Z,51.78
2018-09-08T02:51:05.486Z,51.50
2018-09-08T02:52:05.411Z,52.55
2018-09-08T02:53:05.335Z,53.02
2018-09-08T02:54:05.263Z,53.88
2018-09-08T02:55:05.187Z,53.02
2018-09-08T02:56:05.110Z,54.33
2018-09-08T02:57:05.036Z,54.07
2018-09-08T02:58:04.961Z,53.31
2018-09-08T02:59:04.884Z,52.42
2018-09-08T03:00:04.809Z,52.61
2018-09-08T03:01:04.735Z,55.28
2018-09-08T03:02:04.658Z,56.04
2018-09-08T03:03:04.584Z,54.14
2018-09-08T03:04:04.506Z,52.71
2018-09-08T03:05:04.433Z,51.95
2018-09-08T03:06:04.357Z,51.85
2018-09-08T03:07:04.283Z,52.04
2018-09-08T03:08:04.206Z,52.14
2018-09-08T03:09:04.132Z,51.85
2018-09-08T03:10:04.056Z,52.14
2018-09-08T03:11:03.981Z,52.33
2018-09-08T03:12:03.905Z,53.56
2018-09-08T03:13:03.829Z,53.85
2018-09-08T03:14:03.754Z,55.57
2018-09-08T03:15:03.679Z,53.85
2018-09-08T03:16:03.604Z,52.71
2018-09-08T03:17:03.523Z,52.80
2018-09-08T03:18:03.446Z,53.16
2018-09-08T03:19:03.370Z,52.87
2018-09-08T03:20:03.291Z,53.54
2018-09-08T03:21:03.215Z,52.68
2018-09-08T03:22:03.138Z,52.49
2018-09-08T03:23:03.062Z,52.11
2018-09-08T03:24:02.984Z,52.59
2018-09-08T03:25:02.906Z,53.64
2018-09-08T03:26:02.831Z,54.11
2018-09-08T03:27:02.753Z,55.26
2018-09-08T03:28:02.674Z,55.35
2018-09-08T03:29:02.597Z,55.35
2018-09-08T03:30:02.519Z,55.26
2018-09-08T03:31:02.441Z,54.68
2018-09-08T03:32:02.380Z,55.54
2018-09-08T03:33:02.287Z,55.92
2018-09-08T03:34:02.208Z,57.16
2018-09-08T03:35:02.138Z,59.26
2018-09-08T03:36:02.053Z,59.92
2018-09-08T03:37:01.978Z,60.11
2018-09-08T03:38:01.897Z,58.40
2018-09-08T03:39:01.819Z,58.02
2018-09-08T03:40:01.744Z,57.82
2018-09-08T03:41:01.661Z,59.35
2018-09-08T03:42:01.587Z,59.26
2018-09-08T03:43:01.507Z,60.30
2018-09-08T03:44:01.429Z,61.45
2018-09-08T03:45:01.351Z,61.07
2018-09-08T03:46:01.273Z,61.35
2018-09-08T03:47:01.195Z,62.30
2018-09-08T03:48:01.115Z,62.18
2018-09-08T03:49:01.038Z,61.61
2018-09-08T03:50:00.967Z,61.90
2018-09-08T03:51:00.881Z,62.37
2018-09-08T03:52:00.806Z,62.75
2018-09-08T03:53:00.730Z,63.32
2018-09-08T03:54:00.647Z,62.37
2018-09-08T03:55:00.568Z,61.90
2018-09-08T03:56:00.489Z,61.32
2018-09-08T03:57:00.411Z,62.18
2018-09-08T03:58:00.333Z,62.27
2018-09-08T03:59:00.275Z,61.99
2018-09-08T04:00:00.176Z,62.46
2018-09-08T04:01:00.098Z,62.18
2018-09-08T04:02:00.018Z,62.94
2018-09-08T04:02:59.942Z,63.99
2018-09-08T04:03:59.860Z,63.13
2018-09-08T04:04:59.783Z,62.18
2018-09-08T04:05:59.706Z,61.80
2018-09-08T04:06:59.625Z,62.72
2018-09-08T04:07:59.546Z,62.05
2018-09-08T04:08:59.468Z,61.00
2018-09-08T04:09:59.390Z,60.85
2018-09-08T04:10:59.311Z,61.70
2018-09-08T04:11:59.231Z,61.42
2018-09-08T04:12:59.153Z,61.67
2018-09-08T04:13:59.075Z,60.82
2018-09-08T04:14:58.996Z,61.00
2018-09-08T04:15:58.919Z,59.67
2018-09-08T04:16:58.837Z,58.06
2018-09-08T04:17:58.784Z,58.06
2018-09-08T04:18:58.679Z,59.67
2018-09-08T04:19:58.750Z,60.05
2018-09-08T04:20:58.529Z,59.77
2018-09-08T04:21:58.443Z,61.38
2018-09-08T04:22:58.365Z,61.29
2018-09-08T04:23:58.306Z,59.01
2018-09-08T04:24:58.205Z,58.81
2018-09-08T04:25:58.127Z,59.67
2018-09-08T04:26:58.049Z,59.58
2018-09-08T04:27:57.969Z,59.77
2018-09-08T04:28:57.890Z,59.01
2018-09-08T04:29:57.811Z,57.10
2018-09-08T04:30:57.732Z,57.01
2018-09-08T04:31:57.653Z,59.58
2018-09-08T04:32:57.575Z,58.06
2018-09-08T04:33:57.495Z,58.15
2018-09-08T04:34:57.417Z,58.72
2018-09-08T04:35:57.336Z,59.86
2018-09-08T04:36:57.259Z,59.39
2018-09-08T04:37:57.179Z,60.05
2018-09-08T04:38:57.100Z,58.53
2018-09-08T04:39:57.019Z,58.25
2018-09-08T04:40:56.963Z,59.77
2018-09-08T04:41:56.861Z,59.10
2018-09-08T04:42:56.784Z,58.53
2018-09-08T04:43:56.702Z,58.44
2018-09-08T04:44:56.623Z,58.98
2018-09-08T04:45:56.548Z,59.74
2018-09-08T04:46:56.465Z,60.44
2018-09-08T04:47:56.384Z,57.36
2018-09-08T04:48:56.306Z,57.93
2018-09-08T04:49:56.226Z,59.55
2018-09-08T04:50:56.153Z,59.83
2018-09-08T04:51:56.067Z,58.22
2018-09-08T04:52:55.990Z,58.22
2018-09-08T04:53:55.909Z,57.74
2018-09-08T04:54:55.829Z,56.79
2018-09-08T04:55:55.750Z,57.17
2018-09-08T04:56:55.671Z,57.26
2018-09-08T04:57:55.595Z,56.88
2018-09-08T04:58:55.519Z,55.93
2018-09-08T04:59:55.438Z,57.07
2018-09-08T05:00:55.354Z,57.65
2018-09-08T05:01:55.275Z,57.65
2018-09-08T05:02:55.196Z,56.60
2018-09-08T05:03:55.118Z,57.65
2018-09-08T05:04:55.035Z,57.93
2018-09-08T05:05:54.956Z,58.12
2018-09-08T05:06:54.877Z,57.65
2018-09-08T05:07:54.798Z,56.51
2018-09-08T05:08:54.725Z,55.36
2018-09-08T05:09:54.638Z,56.51
2018-09-08T05:10:54.559Z,58.31
2018-09-08T05:11:54.479Z,57.84
2018-09-08T05:12:54.399Z,56.51
2018-09-08T05:13:54.325Z,54.69
2018-09-08T05:14:54.242Z,54.22
2018-09-08T05:15:54.160Z,54.60
2018-09-08T05:16:54.085Z,56.51
2018-09-08T05:17:54.002Z,57.84
2018-09-08T05:18:53.924Z,57.74
2018-09-08T05:19:53.843Z,57.74
2018-09-08T05:20:53.767Z,55.74
2018-09-08T05:21:53.684Z,54.69
2018-09-08T05:22:53.606Z,53.36
2018-09-08T05:23:53.525Z,53.65
2018-09-08T05:24:53.445Z,53.27
2018-09-08T05:25:53.365Z,52.63
2018-09-08T05:26:53.286Z,52.72
2018-09-08T05:27:53.206Z,53.58
2018-09-08T05:28:53.126Z,54.13
2018-09-08T05:29:53.049Z,53.49
2018-09-08T05:30:52.968Z,52.70
2018-09-08T05:31:52.890Z,53.94
2018-09-08T05:32:52.812Z,55.17
2018-09-08T05:33:52.729Z,55.36
2018-09-08T05:34:52.681Z,54.60
2018-09-08T05:35:52.570Z,54.22
2018-09-08T05:36:52.491Z,54.50
2018-09-08T05:37:52.413Z,54.32
2018-09-08T05:38:52.331Z,54.03
2018-09-08T05:39:52.253Z,53.84
2018-09-08T05:40:52.173Z,53.27
2018-09-08T05:41:52.093Z,52.22
2018-09-08T05:42:52.023Z,53.65
2018-09-08T05:43:51.933Z,53.65
2018-09-08T05:44:51.852Z,52.70
2018-09-08T05:45:51.776Z,52.41
2018-09-08T05:46:51.696Z,53.77
2018-09-08T05:47:51.614Z,54.69
2018-09-08T05:48:51.559Z,53.77
2018-09-08T05:49:51.457Z,52.06
2018-09-08T05:50:51.376Z,52.44
2018-09-08T05:51:51.296Z,53.87
2018-09-08T05:52:51.217Z,56.05
2018-09-08T05:53:51.137Z,56.44
2018-09-08T05:54:51.059Z,55.49
2018-09-08T05:55:50.980Z,55.01
2018-09-08T05:56:50.900Z,55.29
2018-09-08T05:57:50.820Z,55.49
2018-09-08T05:58:50.744Z,55.49
2018-09-08T05:59:50.661Z,54.44
2018-09-08T06:00:50.581Z,52.63
2018-09-08T06:01:50.502Z,51.58
2018-09-08T06:02:50.426Z,52.06
2018-09-08T06:03:50.345Z,53.87
2018-09-08T06:04:50.265Z,54.72
2018-09-08T06:05:50.185Z,54.63
2018-09-08T06:06:50.106Z,54.15
2018-09-08T06:07:50.026Z,53.58
2018-09-08T06:08:49.946Z,52.92
2018-09-08T06:09:49.868Z,52.72
2018-09-08T06:10:49.789Z,53.58
2018-09-08T06:11:49.709Z,54.18
2018-09-08T06:12:49.631Z,54.53
2018-09-08T06:13:49.552Z,55.49
2018-09-08T06:14:49.472Z,54.75
2018-09-08T06:15:49.392Z,54.75
2018-09-08T06:16:49.314Z,53.04
2018-09-08T06:17:49.238Z,52.75
2018-09-08T06:18:49.156Z,53.89
2018-09-08T06:19:49.077Z,52.47
2018-09-08T06:20:48.998Z,51.70
2018-09-08T06:21:48.923Z,51.99
2018-09-08T06:22:48.842Z,50.56
2018-09-08T06:23:48.761Z,51.61
2018-09-08T06:24:48.682Z,53.42
2018-09-08T06:25:48.604Z,53.04
2018-09-08T06:26:48.526Z,53.06
2018-09-08T06:27:48.448Z,52.97
2018-09-08T06:28:48.394Z,53.92
2018-09-08T06:29:48.289Z,54.78
2018-09-08T06:30:48.215Z,56.40
2018-09-08T06:31:48.183Z,56.40
2018-09-08T06:32:48.053Z,56.87
2018-09-08T06:33:48.027Z,57.26
2018-09-08T06:34:47.899Z,57.54
2018-09-08T06:35:47.843Z,56.43
2018-09-08T06:36:47.740Z,55.85
2018-09-08T06:37:47.661Z,56.04
2018-09-08T06:38:47.585Z,56.24
2018-09-08T06:39:47.510Z,57.19
2018-09-08T06:40:47.428Z,60.62
2018-09-08T06:41:47.350Z,61.76
2018-09-08T06:42:47.273Z,60.81
2018-09-08T06:43:47.197Z,61.57
2018-09-08T06:44:47.208Z,61.00
2018-09-08T06:45:47.039Z,61.00
2018-09-08T06:46:46.960Z,61.29
2018-09-08T06:47:46.882Z,61.99
2018-09-08T06:48:46.804Z,61.22
2018-09-08T06:49:46.729Z,61.41
2018-09-08T06:50:46.649Z,63.23
2018-09-08T06:51:46.571Z,64.65
2018-09-08T06:52:46.494Z,66.18
2018-09-08T06:53:46.421Z,65.33
2018-09-08T06:54:46.338Z,64.56
2018-09-08T06:55:46.262Z,63.23
2018-09-08T06:56:46.184Z,62.08
2018-09-08T06:57:46.156Z,62.08
2018-09-08T06:58:46.030Z,62.40
2018-09-08T06:59:45.951Z,63.54
2018-09-08T07:00:45.875Z,65.07
2018-09-08T07:01:45.798Z,65.83
2018-09-08T07:02:45.719Z,65.74
2018-09-08T07:03:45.643Z,65.45
2018-09-08T07:04:45.566Z,66.78
2018-09-08T07:05:45.487Z,66.63
2018-09-08T07:06:45.411Z,68.63
2018-09-08T07:07:45.333Z,71.88
2018-09-08T07:08:45.257Z,71.88
2018-09-08T07:09:45.179Z,72.55
2018-09-08T07:10:45.102Z,71.59
2018-09-08T07:11:45.026Z,72.83
2018-09-08T07:12:44.948Z,72.49
2018-09-08T07:13:44.871Z,73.12
2018-09-08T07:14:44.798Z,73.44
2018-09-08T07:15:44.718Z,74.30
2018-09-08T07:16:44.641Z,75.45
2018-09-08T07:17:44.564Z,74.98
2018-09-08T07:18:44.489Z,76.12
2018-09-08T07:19:44.410Z,78.99
2018-09-08T07:20:44.334Z,79.17
2018-09-08T07:21:44.258Z,88.73
2018-09-08T07:22:44.184Z,87.05
2018-09-08T07:23:44.108Z,83.80
2018-09-08T07:24:44.060Z,79.50
2018-09-08T07:25:43.954Z,78.83
2018-09-08T07:26:43.880Z,81.79
2018-09-08T07:27:43.799Z,92.30
2018-09-08T07:28:43.724Z,89.15
2018-09-08T07:29:43.647Z,87.09
2018-09-08T07:30:43.571Z,85.75
2018-09-08T07:31:43.495Z,84.61
2018-09-08T07:32:43.428Z,88.81
2018-09-08T07:33:43.344Z,88.15
2018-09-08T07:34:43.267Z,89.48
2018-09-08T07:35:43.192Z,88.00
2018-09-08T07:36:43.114Z,87.90
2018-09-08T07:37:43.039Z,88.76
2018-09-08T07:38:42.963Z,92.02
2018-09-08T07:39:42.887Z,93.55
2018-09-08T07:40:42.813Z,92.11
2018-09-08T07:41:42.737Z,90.44
2018-09-08T07:42:42.661Z,93.02
2018-09-08T07:43:42.586Z,98.66
2018-09-08T07:44:42.508Z,99.99
2018-09-08T07:45:42.436Z,99.99
2018-09-08T07:46:42.358Z,99.99
2018-09-08T07:47:42.283Z,99.99
2018-09-08T07:48:42.207Z,99.99
2018-09-08T07:49:42.133Z,99.99
2018-09-08T07:50:42.057Z,99.99
2018-09-08T07:51:41.981Z,99.99
2018-09-08T07:52:41.909Z,99.99
2018-09-08T07:53:41.847Z,99.99
2018-09-08T07:54:41.754Z,99.99
2018-09-08T07:55:41.680Z,99.99
2018-09-08T07:56:41.603Z,99.99
2018-09-08T07:57:41.531Z,99.99
2018-09-08T07:58:41.454Z,99.99
2018-09-08T07:59:41.380Z,99.99
2018-09-08T08:00:41.303Z,99.99
2018-09-08T08:01:41.231Z,99.99
2018-09-08T08:02:41.153Z,99.99
2018-09-08T08:03:41.127Z,99.99
2018-09-08T08:04:41.003Z,99.99
2018-09-08T08:05:40.928Z,99.99
2018-09-08T08:06:40.875Z,99.99
2018-09-08T08:07:40.777Z,99.99
2018-09-08T08:08:40.703Z,99.99
2018-09-08T08:09:40.628Z,99.99
2018-09-08T08:10:40.553Z,99.99
2018-09-08T08:11:40.477Z,99.99
2018-09-08T08:12:40.404Z,99.99
2018-09-08T08:13:40.328Z,99.99
2018-09-08T08:14:40.360Z,99.99
2018-09-08T08:15:40.178Z,99.99
2018-09-08T08:16:40.107Z,99.99
2018-09-08T08:17:40.030Z,99.99
2018-09-08T08:18:39.956Z,99.19
2018-09-08T08:19:39.879Z,96.08
2018-09-08T08:20:39.806Z,95.56
2018-09-08T08:21:39.732Z,88.80
2018-09-08T08:22:39.656Z,89.95
2018-09-08T08:23:39.582Z,93.69
2018-09-08T08:24:39.507Z,99.99
2018-09-08T08:25:39.432Z,99.87
2018-09-08T08:26:39.358Z,99.19
2018-09-08T08:27:39.283Z,94.89
2018-09-08T08:28:39.210Z,88.84
2018-09-08T08:29:39.135Z,87.37
2018-09-08T08:30:39.061Z,96.47
2018-09-08T08:31:38.989Z,93.02
2018-09-08T08:32:38.911Z,94.02
2018-09-08T08:33:38.837Z,90.57
2018-09-08T08:34:38.762Z,89.61
2018-09-08T08:35:38.688Z,83.76
2018-09-08T08:36:38.613Z,86.79
2018-09-08T08:37:38.541Z,89.71
2018-09-08T08:38:38.467Z,92.68
2018-09-08T08:39:38.391Z,87.88
2018-09-08T08:40:38.317Z,91.63
2018-09-08T08:41:38.242Z,83.29
2018-09-08T08:42:38.168Z,83.48
2018-09-08T08:43:38.093Z,86.54
2018-09-08T08:44:38.019Z,87.12
2018-09-08T08:45:37.947Z,85.39
2018-09-08T08:46:37.870Z,82.52
2018-09-08T08:47:37.796Z,83.29
2018-09-08T08:48:37.722Z,83.38
2018-09-08T08:49:37.674Z,87.88
2018-09-08T08:50:37.573Z,94.21
2018-09-08T08:51:37.502Z,88.84
2018-09-08T08:52:37.425Z,88.70
2018-09-08T08:53:37.349Z,84.63
2018-09-08T08:54:37.277Z,83.29
2018-09-08T08:55:37.231Z,85.82
2018-09-08T08:56:37.127Z,84.67
2018-09-08T08:57:37.052Z,79.68
2018-09-08T08:58:36.978Z,80.22
2018-09-08T08:59:36.903Z,82.71
2018-09-08T09:00:36.829Z,86.78
2018-09-08T09:01:36.762Z,85.05
2018-09-08T09:02:36.681Z,85.48
2018-09-08T09:03:36.607Z,82.41
2018-09-08T09:04:36.533Z,82.27
2018-09-08T09:05:36.459Z,82.94
2018-09-08T09:06:36.385Z,81.79
2018-09-08T09:07:36.396Z,79.78
2018-09-08T09:08:36.661Z,80.26
2018-09-08T09:09:36.162Z,81.70
2018-09-08T09:10:36.087Z,81.79
2018-09-08T09:11:36.378Z,87.01
2018-09-08T09:12:36.276Z,81.45
2018-09-08T09:13:36.006Z,80.97
2018-09-08T09:14:36.139Z,77.86
2018-09-08T09:15:36.237Z,78.25
2018-09-08T09:16:35.643Z,84.38
2018-09-08T09:17:35.571Z,83.81
2018-09-08T09:18:35.909Z,79.21
2018-09-08T09:19:35.420Z,83.23
2018-09-08T09:20:35.347Z,79.11
2018-09-08T09:21:35.273Z,80.45
2018-09-08T09:22:35.199Z,81.51
2018-09-08T09:23:35.125Z,82.94
2018-09-08T09:24:35.339Z,79.97
2018-09-08T09:25:34.979Z,83.81
2018-09-08T09:26:34.903Z,83.04
2018-09-08T09:27:34.828Z,80.16
2018-09-08T09:28:34.754Z,81.12
2018-09-08T09:29:34.684Z,82.85
2018-09-08T09:30:34.608Z,85.82
2018-09-08T09:31:34.532Z,84.86
2018-09-08T09:32:34.459Z,86.93
2018-09-08T09:33:34.385Z,90.00
2018-09-08T09:34:34.311Z,91.24
2018-09-08T09:35:34.236Z,93.83
2018-09-08T09:36:34.162Z,95.98
2018-09-08T09:37:34.089Z,91.48
2018-09-08T09:38:34.016Z,90.52
2018-09-08T09:39:33.941Z,87.35
2018-09-08T09:40:33.867Z,89.99
2018-09-08T09:41:33.792Z,84.04
2018-09-08T09:42:33.718Z,83.08
2018-09-08T09:43:33.645Z,85.77
2018-09-08T09:44:33.570Z,88.45
2018-09-08T09:45:33.497Z,90.75
2018-09-08T09:46:33.423Z,82.21
2018-09-08T09:47:33.350Z,81.35
2018-09-08T09:48:33.278Z,83.42
2018-09-08T09:49:33.203Z,81.84
2018-09-08T09:50:33.130Z,78.09
2018-09-08T09:51:33.055Z,80.30
2018-09-08T09:52:32.983Z,80.78
2018-09-08T09:53:32.909Z,77.33
2018-09-08T09:54:32.839Z,76.37
2018-09-08T09:55:32.760Z,75.82
2018-09-08T09:56:32.688Z,73.20
2018-09-08T09:57:32.615Z,73.30
2018-09-08T09:58:32.539Z,72.81
2018-09-08T09:59:32.465Z,74.79
2018-09-08T10:00:32.392Z,75.56
2018-09-08T10:01:32.319Z,74.73
2018-09-08T10:02:32.247Z,76.94
2018-09-08T10:03:32.171Z,74.83
2018-09-08T10:04:32.099Z,73.62
2018-09-08T10:05:32.025Z,72.18
2018-09-08T10:06:31.981Z,70.13
2018-09-08T10:07:31.877Z,71.66
2018-09-08T10:08:31.803Z,73.30
2018-09-08T10:09:31.730Z,73.10
2018-09-08T10:10:31.658Z,73.00
2018-09-08T10:11:31.583Z,72.91
2018-09-08T10:12:31.509Z,72.72
2018-09-08T10:13:31.436Z,73.62
2018-09-08T10:14:31.366Z,74.68
2018-09-08T10:15:31.289Z,73.43
2018-09-08T10:16:31.215Z,70.45
2018-09-08T10:17:31.142Z,72.75
2018-09-08T10:18:31.068Z,72.66
2018-09-08T10:19:30.995Z,73.14
2018-09-08T10:20:30.921Z,72.95
2018-09-08T10:21:30.847Z,71.51
2018-09-08T10:22:30.776Z,70.36
2018-09-08T10:23:30.789Z,70.17
2018-09-08T10:24:30.627Z,70.26
2018-09-08T10:25:30.555Z,70.45
2018-09-08T10:26:30.577Z,71.28
2018-09-08T10:27:30.407Z,71.03
2018-09-08T10:28:30.346Z,72.56
2018-09-08T10:29:30.508Z,72.47
2018-09-08T10:30:30.256Z,71.70
2018-09-08T10:31:30.114Z,75.82
2018-09-08T10:32:30.041Z,76.34
2018-09-08T10:33:29.966Z,70.58
2018-09-08T10:34:29.893Z,71.83
2018-09-08T10:35:29.822Z,73.94
2018-09-08T10:36:29.746Z,71.16
2018-09-08T10:37:29.673Z,72.12
2018-09-08T10:38:29.600Z,71.64
2018-09-08T10:39:29.527Z,70.10
2018-09-08T10:40:29.455Z,70.90
2018-09-08T10:41:29.381Z,74.08
2018-09-08T10:42:29.309Z,70.23
2018-09-08T10:43:29.233Z,70.10
2018-09-08T10:44:29.161Z,70.01
2018-09-08T10:45:29.090Z,72.60
2018-09-08T10:46:29.014Z,70.68
2018-09-08T10:47:28.944Z,70.20
2018-09-08T10:48:28.870Z,72.73
2018-09-08T10:49:28.796Z,70.43
2018-09-08T10:50:28.724Z,68.21
2018-09-08T10:51:28.651Z,69.46
2018-09-08T10:52:28.577Z,71.77
2018-09-08T10:53:28.506Z,71.10
2018-09-08T10:54:28.432Z,72.77
2018-09-08T10:55:28.359Z,69.40
2018-09-08T10:56:28.286Z,67.19
2018-09-08T10:57:28.213Z,67.86
2018-09-08T10:58:28.143Z,66.61
2018-09-08T10:59:28.068Z,66.52
2018-09-08T11:00:27.997Z,68.35
2018-09-08T11:01:28.028Z,68.73
2018-09-08T11:02:28.041Z,68.15
2018-09-08T11:03:27.779Z,67.86
2018-09-08T11:04:27.707Z,68.73
2018-09-08T11:05:27.637Z,69.12
2018-09-08T11:06:27.563Z,70.75
2018-09-08T11:07:27.490Z,75.07
2018-09-08T11:08:27.418Z,70.78
2018-09-08T11:09:27.346Z,68.86
2018-09-08T11:10:27.275Z,67.99
2018-09-08T11:11:27.201Z,69.15
2018-09-08T11:12:27.129Z,67.99
2018-09-08T11:13:27.059Z,66.46
2018-09-08T11:14:26.988Z,66.27
2018-09-08T11:15:26.968Z,65.59
2018-09-08T11:16:26.842Z,67.29
2018-09-08T11:17:26.772Z,68.67
2018-09-08T11:18:26.698Z,66.42
2018-09-08T11:19:26.627Z,67.29
2018-09-08T11:20:26.554Z,66.04
2018-09-08T11:21:26.481Z,67.42
2018-09-08T11:22:26.410Z,67.03
2018-09-08T11:23:26.350Z,65.72
2018-09-08T11:24:26.266Z,62.80
2018-09-08T11:25:26.194Z,64.15
2018-09-08T11:26:26.124Z,66.49
2018-09-08T11:27:26.049Z,63.82
2018-09-08T11:28:25.978Z,63.64
2018-09-08T11:29:25.908Z,62.60
2018-09-08T11:30:25.877Z,64.05
2018-09-08T11:31:25.767Z,62.22
2018-09-08T11:32:25.695Z,62.48
2018-09-08T11:33:25.623Z,62.29
2018-09-08T11:34:25.550Z,63.15
2018-09-08T11:35:25.479Z,64.31
2018-09-08T11:36:25.408Z,63.79
2018-09-08T11:37:25.337Z,63.54
2018-09-08T11:38:25.393Z,61.90
2018-09-08T11:39:25.204Z,61.74
2018-09-08T11:40:25.129Z,62.54
2018-09-08T11:41:25.054Z,62.15
2018-09-08T11:42:24.985Z,60.64
2018-09-08T11:43:24.915Z,56.88
2018-09-08T11:44:24.847Z,58.59
2018-09-08T11:45:24.774Z,58.42
2018-09-08T11:46:24.710Z,58.75
2018-09-08T11:47:24.638Z,56.46
2018-09-08T11:48:24.567Z,54.39
2018-09-08T11:49:24.560Z,52.36
2018-09-08T11:50:24.430Z,51.97
2018-09-08T11:51:24.360Z,53.06
2018-09-08T11:52:24.291Z,52.14
2018-09-08T11:53:24.225Z,49.46
2018-09-08T11:54:24.157Z,49.56
2018-09-08T11:55:24.090Z,50.48
2018-09-08T11:56:24.022Z,49.46
2018-09-08T11:57:23.956Z,46.60
2018-09-08T11:58:23.891Z,45.29
2018-09-08T11:59:23.839Z,45.95
2018-09-08T12:00:23.760Z,44.78
2018-09-08T12:01:23.694Z,45.83
2018-09-08T12:02:23.633Z,48.57
2018-09-08T12:03:23.565Z,48.49
2018-09-08T12:04:23.501Z,45.53
2018-09-08T12:05:23.436Z,43.08
2018-09-08T12:06:23.389Z,43.08
2018-09-08T12:07:23.308Z,44.73
2018-09-08T12:08:23.247Z,42.94
2018-09-08T12:09:23.182Z,45.83
2018-09-08T12:10:23.123Z,47.30
2018-09-08T12:11:23.056Z,45.95
2018-09-08T12:12:22.994Z,46.07
2018-09-08T12:13:22.931Z,45.89
2018-09-08T12:14:22.868Z,45.92
2018-09-08T12:15:22.807Z,43.72
2018-09-08T12:16:22.743Z,46.26
2018-09-08T12:17:22.682Z,44.95
2018-09-08T12:18:22.620Z,43.30
2018-09-08T12:19:22.557Z,43.31
2018-09-08T12:20:22.496Z,44.37
2018-09-08T12:21:22.437Z,45.37
2018-09-08T12:22:22.434Z,45.51
2018-09-08T12:23:22.312Z,43.26
2018-09-08T12:24:22.251Z,44.54
2018-09-08T12:25:22.190Z,43.08
2018-09-08T12:26:22.129Z,44.34
2018-09-08T12:27:22.067Z,43.08
2018-09-08T12:28:22.006Z,44.21
2018-09-08T12:29:21.946Z,40.91
2018-09-08T12:30:21.940Z,40.50
2018-09-08T12:31:21.824Z,40.11
2018-09-08T12:32:21.774Z,40.97
2018-09-08T12:33:21.706Z,41.84
2018-09-08T12:34:21.644Z,41.43
2018-09-08T12:35:21.580Z,44.92
2018-09-08T12:36:21.524Z,42.54
2018-09-08T12:37:21.461Z,41.77
2018-09-08T12:38:21.402Z,41.30
2018-09-08T12:39:21.339Z,41.06
2018-09-08T12:40:21.278Z,41.22
2018-09-08T12:41:21.219Z,43.76
2018-09-08T12:42:21.160Z,43.98
2018-09-08T12:43:21.099Z,42.66
2018-09-08T12:44:21.039Z,40.54
2018-09-08T12:45:20.983Z,40.15
2018-09-08T12:46:20.919Z,40.87
2018-09-08T12:47:20.857Z,41.41
2018-09-08T12:48:20.798Z,42.61
2018-09-08T12:49:20.737Z,42.69
2018-09-08T12:50:20.677Z,42.36
2018-09-08T12:51:20.617Z,42.96